Time;durP1;ratioP1;P1;durP2;ratioP2;P2;SDS_P1;SDS_P2;PMS_P1;PMS_P2;Temp;Humidity;BMP_temperature;BMP_pressure;BME280_temperature;BME280_humidity;BME280_pressure;Samples;Min_cycle;Max_cycle;Signal;HPM_P1;HPM_P2
2022/04/18 00:03:14;;;;;;;2.50;2.30;;;9.10;23.30;;;;;;10381887;28;20234;-73
2022/04/18 00:08:17;;;;;;;2.63;2.43;;;9.10;23.40;;;;;;10379916;28;20787;-74
2022/04/18 00:13:20;;;;;;;3.30;2.33;;;9.10;23.30;;;;;;10387907;28;20599;-73
2022/04/18 00:18:25;;;;;;;2.33;2.10;;;9.10;23.40;;;;;;10370606;28;20226;-74
2022/04/18 00:23:28;;;;;;;2.50;2.30;;;9.10;23.40;;;;;;10378747;28;20226;-73
2022/04/18 00:28:31;;;;;;;3.20;2.40;;;8.90;23.30;;;;;;10391019;28;20233;-73
2022/04/18 00:33:36;;;;;;;3.20;2.30;;;8.90;23.40;;;;;;10379623;28;20222;-73
2022/04/18 00:38:40;;;;;;;2.30;2.10;;;8.90;23.50;;;;;;10383471;28;20226;-73
2022/04/18 00:43:44;;;;;;;2.50;2.30;;;8.80;23.30;;;;;;10377482;28;20256;-73
2022/04/18 00:48:49;;;;;;;2.23;2.03;;;8.80;23.50;;;;;;10382790;28;20217;-73
2022/04/18 00:53:54;;;;;;;2.03;1.90;;;8.70;23.40;;;;;;10383013;28;20240;-73
2022/04/18 00:58:57;;;;;;;2.83;2.50;;;8.70;23.40;;;;;;10376570;28;20804;-73
2022/04/18 01:04:02;;;;;;;2.87;2.33;;;8.60;23.50;;;;;;10389485;28;20230;-73
2022/04/18 01:09:05;;;;;;;2.40;2.17;;;8.60;23.60;;;;;;10383774;28;20214;-74
2022/04/18 01:14:08;;;;;;;2.43;2.23;;;8.50;23.60;;;;;;10391581;28;20724;-73
2022/04/18 01:19:12;;;;;;;2.70;2.50;;;8.50;23.70;;;;;;10383052;28;20733;-73
2022/04/18 01:29:38;;;;;;;2.27;2.07;;;8.40;23.90;;;;;;10377707;28;20248;-73
2022/04/18 01:34:41;;;;;;;2.37;2.20;;;8.40;23.80;;;;;;10380603;28;20234;-73
2022/04/18 01:39:45;;;;;;;3.13;2.67;;;8.40;23.90;;;;;;10382311;28;20222;-73
2022/04/18 01:44:48;;;;;;;2.67;2.10;;;8.40;24.00;;;;;;10385032;28;20248;-73
2022/04/18 01:49:52;;;;;;;3.27;2.37;;;8.40;23.90;;;;;;10386692;28;20225;-73
2022/04/18 01:54:56;;;;;;;2.37;2.17;;;8.40;23.90;;;;;;10375441;28;20229;-73
2022/04/18 02:00:00;;;;;;;3.47;2.60;;;8.40;24.10;;;;;;10384773;28;20234;-73
2022/04/18 02:05:03;;;;;;;2.70;2.50;;;8.40;24.10;;;;;;10382411;28;20242;-73
2022/04/18 02:10:08;;;;;;;2.53;2.33;;;8.40;24.10;;;;;;10389353;28;20726;-73
2022/04/18 02:15:12;;;;;;;2.40;2.20;;;8.30;24.20;;;;;;10388423;28;20602;-73
2022/04/18 02:20:15;;;;;;;2.53;2.33;;;8.30;24.00;;;;;;10394206;28;20601;-73
2022/04/18 02:25:19;;;;;;;2.40;2.10;;;8.20;23.90;;;;;;10392485;28;20230;-73
2022/04/18 02:30:22;;;;;;;2.77;2.27;;;8.10;24.10;;;;;;10384625;28;20770;-73
2022/04/18 02:35:27;;;;;;;2.17;2.00;;;8.00;24.00;;;;;;10387362;28;20234;-73
2022/04/18 02:40:31;;;;;;;2.27;2.07;;;8.00;24.30;;;;;;10394581;28;20234;-73
2022/04/18 02:45:34;;;;;;;3.63;2.20;;;7.90;24.30;;;;;;10395576;28;20221;-73
2022/04/18 02:50:38;;;;;;;2.10;1.90;;;7.90;24.20;;;;;;10385847;28;20710;-73
2022/04/18 02:55:42;;;;;;;2.47;2.27;;;7.90;24.20;;;;;;10388093;28;20226;-73
2022/04/18 03:00:46;;;;;;;3.53;2.10;;;7.80;24.40;;;;;;10399759;28;20325;-73
2022/04/18 03:05:49;;;;;;;3.80;2.60;;;7.80;24.30;;;;;;10385469;28;20248;-73
2022/04/18 03:11:07;;;;;;;2.27;2.07;;;7.80;24.30;;;;;;10386922;28;20578;-73
2022/04/18 03:16:10;;;;;;;3.50;2.10;;;7.70;24.40;;;;;;10384080;28;20278;-73
2022/04/18 03:21:16;;;;;;;3.47;2.30;;;7.60;24.20;;;;;;10383767;28;20222;-73
2022/04/18 03:26:20;;;;;;;2.63;1.90;;;7.60;24.20;;;;;;10383337;28;20261;-73
2022/04/18 03:31:24;;;;;;;2.10;1.90;;;7.50;24.30;;;;;;10385021;28;20768;-73
2022/04/18 03:41:50;;;;;;;2.27;2.13;;;7.30;24.40;;;;;;10384841;28;20226;-73
2022/04/18 03:46:53;;;;;;;2.33;2.13;;;7.30;24.70;;;;;;10379838;28;20729;-73
2022/04/18 03:51:56;;;;;;;3.40;2.30;;;7.30;24.60;;;;;;10380473;28;20228;-73
2022/04/18 03:57:01;;;;;;;3.83;2.33;;;7.30;24.70;;;;;;10380566;28;20230;-73
2022/04/18 04:02:05;;;;;;;2.20;2.10;;;7.30;24.80;;;;;;10378190;28;20264;-73
2022/04/18 04:07:08;;;;;;;2.30;2.10;;;7.20;24.70;;;;;;10381693;28;20273;-73
2022/04/18 04:12:13;;;;;;;2.33;2.13;;;7.20;24.80;;;;;;10383098;28;20710;-73
2022/04/18 04:17:16;;;;;;;2.60;2.40;;;7.10;25.00;;;;;;10376418;28;20236;-73
2022/04/18 04:22:44;;;;;;;2.43;2.23;;;7.10;24.90;;;;;;10380128;28;20218;-73
2022/04/18 04:27:48;;;;;;;2.03;1.93;;;7.00;25.30;;;;;;10378746;28;20598;-73
2022/04/18 04:32:51;;;;;;;2.60;2.40;;;7.00;25.00;;;;;;10382429;28;20230;-73
2022/04/18 04:37:55;;;;;;;4.67;2.60;;;7.00;25.00;;;;;;10377075;28;20231;-73
2022/04/18 04:42:59;;;;;;;3.03;2.50;;;6.90;25.00;;;;;;10378500;28;20218;-73
2022/04/18 04:48:02;;;;;;;2.60;2.40;;;6.90;25.10;;;;;;10379570;28;20226;-73
2022/04/18 04:53:05;;;;;;;3.20;2.60;;;6.90;25.10;;;;;;10381899;28;20760;-73
2022/04/18 04:58:10;;;;;;;2.67;2.43;;;6.90;25.20;;;;;;10376975;28;20234;-73
2022/04/18 05:03:13;;;;;;;2.23;2.03;;;6.90;25.30;;;;;;10377686;28;20222;-73
2022/04/18 05:08:16;;;;;;;3.43;2.50;;;6.90;25.30;;;;;;10379960;28;20331;-73
2022/04/18 05:13:21;;;;;;;2.47;2.27;;;6.90;25.30;;;;;;10381317;28;20256;-73
2022/04/18 05:18:25;;;;;;;2.43;2.10;;;7.00;25.60;;;;;;10383958;28;20230;-73
2022/04/18 05:23:28;;;;;;;3.60;2.60;;;7.00;25.50;;;;;;10385418;28;20229;-73
2022/04/18 05:28:32;;;;;;;2.73;2.43;;;7.00;25.50;;;;;;10387368;28;20229;-73
2022/04/18 05:33:36;;;;;;;2.40;2.20;;;7.00;25.70;;;;;;10382779;28;20229;-73
2022/04/18 05:38:40;;;;;;;2.70;2.50;;;7.10;25.60;;;;;;10378003;28;20238;-73
2022/04/18 05:43:46;;;;;;;2.60;2.40;;;7.10;25.70;;;;;;10387783;28;20228;-73
2022/04/18 05:48:49;;;;;;;2.43;2.23;;;7.10;26.00;;;;;;10391703;28;20225;-73
2022/04/18 05:53:55;;;;;;;3.17;2.40;;;7.00;25.70;;;;;;10394293;28;20611;-73
2022/04/18 05:59:00;;;;;;;2.80;2.60;;;7.10;25.90;;;;;;10388161;28;20217;-73
2022/04/18 06:04:03;;;;;;;2.77;2.50;;;7.10;26.30;;;;;;10390067;28;20245;-74
2022/04/18 06:09:07;;;;;;;3.00;2.50;;;7.10;26.20;;;;;;10390929;28;20276;-74
2022/04/18 06:14:11;;;;;;;2.80;2.60;;;7.10;26.30;;;;;;10390920;28;20225;-74
2022/04/18 06:19:14;;;;;;;2.60;2.40;;;7.20;26.90;;;;;;10385284;28;20227;-74
2022/04/18 06:24:18;;;;;;;2.77;2.57;;;7.30;26.80;;;;;;10383465;28;20247;-74
2022/04/18 06:29:23;;;;;;;2.80;2.60;;;7.30;26.90;;;;;;10390043;28;20233;-74
2022/04/18 06:34:27;;;;;;;3.30;2.77;;;7.40;27.00;;;;;;10389643;28;20237;-74
2022/04/18 06:39:30;;;;;;;3.30;2.70;;;7.60;27.00;;;;;;10386415;28;20259;-74
2022/04/18 06:44:35;;;;;;;2.80;2.60;;;7.70;27.20;;;;;;10383436;28;20230;-74
2022/04/18 06:49:38;;;;;;;3.23;2.63;;;7.80;27.40;;;;;;10386572;28;20233;-74
2022/04/18 06:54:41;;;;;;;3.60;2.50;;;8.00;27.40;;;;;;10378583;28;20226;-74
2022/04/18 06:59:46;;;;;;;2.90;2.70;;;8.20;27.20;;;;;;10384958;28;20249;-74
2022/04/18 07:04:50;;;;;;;2.80;2.60;;;8.40;27.30;;;;;;10385240;28;21063;-74
2022/04/18 07:09:53;;;;;;;2.50;2.30;;;8.60;27.40;;;;;;10380984;28;20230;-74
2022/04/18 07:14:59;;;;;;;3.17;2.57;;;8.80;27.00;;;;;;10380289;28;20702;-74
2022/04/18 07:20:02;;;;;;;2.40;2.20;;;9.00;26.90;;;;;;10373329;28;20632;-74
2022/04/18 07:25:08;;;;;;;2.50;2.17;;;9.20;27.00;;;;;;10382374;28;20230;-74
2022/04/18 07:30:12;;;;;;;2.30;2.20;;;9.50;26.90;;;;;;10375575;28;20228;-73
2022/04/18 07:35:16;;;;;;;2.63;2.43;;;9.70;26.60;;;;;;10375850;28;20701;-74
2022/04/18 07:40:19;;;;;;;2.90;2.30;;;10.00;25.60;;;;;;10377959;28;20599;-74
2022/04/18 07:45:24;;;;;;;2.60;2.30;;;10.20;25.60;;;;;;10380473;28;20238;-74
2022/04/18 07:51:31;;;;;;;2.40;2.10;;;10.60;25.50;;;;;;10381663;28;20589;-74
2022/04/18 07:55:50;;;;;;;2.57;2.30;;;10.80;25.30;;;;;;10375225;28;20241;-74
2022/04/18 08:00:55;;;;;;;2.20;2.00;;;11.20;25.20;;;;;;10378873;28;20230;-74
2022/04/18 08:05:58;;;;;;;2.80;2.07;;;11.40;24.80;;;;;;10377016;28;20237;-74
2022/04/18 08:11:02;;;;;;;3.50;1.97;;;11.80;25.00;;;;;;10378748;28;20222;-73
2022/04/18 08:16:07;;;;;;;2.63;1.80;;;12.10;24.90;;;;;;10376582;28;20333;-74
2022/04/18 08:21:10;;;;;;;2.00;1.90;;;12.40;24.50;;;;;;10377486;28;20234;-74
2022/04/18 08:26:13;;;;;;;3.23;2.50;;;12.70;24.40;;;;;;10377815;28;20725;-74
2022/04/18 08:31:19;;;;;;;1.73;1.57;;;13.00;23.90;;;;;;10375649;28;20756;-73
2022/04/18 08:36:22;;;;;;;2.20;2.00;;;13.30;23.40;;;;;;10378016;28;20246;-74
2022/04/18 08:41:35;;;;;;;2.03;1.93;;;13.60;23.50;;;;;;10374066;28;20229;-74
2022/04/18 08:46:40;;;;;;;1.60;1.50;;;13.80;22.70;;;;;;10380902;28;20230;-74
2022/04/18 08:57:05;;;;;;;2.00;1.73;;;14.30;22.80;;;;;;10373754;28;20226;-74
2022/04/18 09:02:09;;;;;;;1.90;1.80;;;14.50;22.80;;;;;;10374489;28;20226;-74
2022/04/18 09:07:14;;;;;;;2.30;1.90;;;14.60;21.70;;;;;;10380873;28;20303;-74
2022/04/18 09:12:21;;;;;;;1.90;1.70;;;14.80;21.80;;;;;;10376052;28;20226;-74
2022/04/18 09:17:34;;;;;;;1.80;1.70;;;14.90;21.80;;;;;;10382805;28;20923;-74
2022/04/18 09:22:48;;;;;;;1.83;1.70;;;15.10;21.90;;;;;;10376618;28;20233;-73
2022/04/18 09:27:56;;;;;;;1.90;1.80;;;15.20;20.40;;;;;;10372085;28;20234;-73
2022/04/18 09:33:04;;;;;;;1.80;1.70;;;15.30;20.60;;;;;;10377881;28;20272;-73
2022/04/18 09:38:08;;;;;;;1.60;1.50;;;15.40;21.20;;;;;;10371763;28;20241;-74
2022/04/18 09:43:12;;;;;;;1.93;1.70;;;15.50;21.40;;;;;;10369985;28;20832;-74
2022/04/18 09:48:17;;;;;;;1.70;1.60;;;15.70;20.90;;;;;;10376272;28;20234;-73
2022/04/18 09:53:22;;;;;;;2.77;1.70;;;15.80;20.40;;;;;;10375073;28;20230;-74
2022/04/18 09:58:26;;;;;;;2.00;1.83;;;15.90;20.00;;;;;;10373191;28;20225;-74
2022/04/18 10:03:52;;;;;;;1.70;1.60;;;16.00;20.60;;;;;;10375688;28;20213;-74
2022/04/18 10:08:55;;;;;;;1.77;1.60;;;16.10;20.30;;;;;;10371937;28;20241;-73
2022/04/18 10:13:58;;;;;;;1.63;1.53;;;16.30;20.60;;;;;;10374364;28;20226;-74
2022/04/18 10:19:10;;;;;;;1.60;1.47;;;16.40;20.10;;;;;;10375466;28;20716;-74
2022/04/18 10:24:49;;;;;;;2.03;1.43;;;16.50;18.50;;;;;;10373566;28;20245;-74
2022/04/18 10:29:54;;;;;;;1.60;1.50;;;16.50;17.40;;;;;;10374630;28;20859;-74
2022/04/18 10:35:01;;;;;;;1.60;1.50;;;16.40;19.10;;;;;;10383469;28;20226;-74
2022/04/18 10:40:06;;;;;;;1.60;1.50;;;16.40;18.60;;;;;;10378427;28;20576;-74
2022/04/18 10:45:12;;;;;;;1.67;1.50;;;16.60;19.30;;;;;;10376340;28;20312;-74
2022/04/18 10:50:20;;;;;;;1.50;1.40;;;16.70;19.30;;;;;;10384858;28;20232;-74
2022/04/18 10:55:23;;;;;;;1.50;1.40;;;16.90;18.50;;;;;;10382142;28;20229;-73
2022/04/18 11:00:46;;;;;;;2.10;1.87;;;17.10;19.30;;;;;;10374318;28;20230;-74
2022/04/18 11:05:50;;;;;;;1.80;1.70;;;17.20;17.40;;;;;;10380937;28;20607;-73
2022/04/18 11:11:04;;;;;;;1.97;1.23;;;17.30;19.00;;;;;;10378917;28;20222;-74
2022/04/18 11:16:41;;;;;;;1.80;1.60;;;17.40;17.90;;;;;;10381074;28;20243;-74
2022/04/18 11:22:26;;;;;;;1.80;1.70;;;17.50;17.60;;;;;;10371850;28;20221;-74
2022/04/18 11:27:38;;;;;;;2.00;1.60;;;17.50;17.70;;;;;;10379974;28;20247;-74
2022/04/18 11:32:44;;;;;;;1.60;1.50;;;17.40;17.50;;;;;;10382228;28;20227;-74
2022/04/18 11:37:49;;;;;;;1.40;1.30;;;17.40;18.40;;;;;;10379540;28;20332;-72
2022/04/18 11:42:54;;;;;;;1.80;1.70;;;17.50;18.70;;;;;;10376126;28;20726;-74
2022/04/18 11:47:57;;;;;;;1.67;1.57;;;17.50;18.10;;;;;;10376257;28;20230;-74
2022/04/18 11:53:04;;;;;;;1.47;1.37;;;17.60;18.40;;;;;;10381749;28;20221;-73
2022/04/18 11:58:09;;;;;;;1.50;1.40;;;17.70;17.80;;;;;;10377696;28;20231;-74
2022/04/18 12:08:34;;;;;;;1.70;1.60;;;17.80;18.30;;;;;;10378163;28;20652;-74
2022/04/18 12:13:45;;;;;;;1.60;1.50;;;17.90;18.30;;;;;;10381068;28;20257;-74
2022/04/18 12:18:55;;;;;;;1.70;1.60;;;18.00;17.70;;;;;;10377676;28;20237;-74
2022/04/18 12:24:00;;;;;;;3.03;1.47;;;18.00;18.30;;;;;;10375596;28;20225;-73
2022/04/18 12:29:07;;;;;;;1.90;1.80;;;18.00;18.30;;;;;;10379657;28;20223;-74
2022/04/18 12:34:17;;;;;;;1.57;1.40;;;18.00;17.90;;;;;;10375795;28;20234;-74
2022/04/18 12:39:22;;;;;;;1.40;1.30;;;18.10;17.50;;;;;;10378288;28;20340;-74
2022/04/18 12:44:28;;;;;;;1.57;1.40;;;18.10;18.20;;;;;;10378964;28;20308;-74
2022/04/18 12:49:31;;;;;;;1.40;1.30;;;18.20;17.90;;;;;;10375693;28;20237;-74
2022/04/18 12:54:34;;;;;;;1.60;1.50;;;18.20;18.20;;;;;;10378023;28;20230;-73
2022/04/18 12:59:42;;;;;;;1.50;1.40;;;18.20;17.90;;;;;;10374238;28;20238;-74
2022/04/18 13:05:00;;;;;;;1.57;1.47;;;18.20;17.10;;;;;;10377077;28;20244;-73
2022/04/18 13:10:03;;;;;;;1.77;1.50;;;18.10;17.00;;;;;;10375687;28;20596;-74
2022/04/18 13:15:11;;;;;;;1.63;1.53;;;18.10;17.70;;;;;;10378880;28;20233;-74
2022/04/18 13:20:15;;;;;;;1.37;1.27;;;18.00;17.40;;;;;;10380053;28;20221;-74
2022/04/18 13:25:18;;;;;;;1.60;1.50;;;18.00;17.80;;;;;;10373505;28;20729;-74
2022/04/18 13:30:28;;;;;;;1.40;1.30;;;18.00;17.80;;;;;;10375956;28;20231;-73
2022/04/18 13:35:31;;;;;;;1.40;1.30;;;18.00;17.60;;;;;;10380330;28;20261;-73
2022/04/18 13:40:34;;;;;;;1.50;1.40;;;18.00;18.10;;;;;;10371783;28;20230;-73
2022/04/18 13:45:39;;;;;;;1.63;1.40;;;18.00;17.90;;;;;;10374156;28;20225;-73
2022/04/18 13:50:44;;;;;;;1.40;1.30;;;18.10;18.50;;;;;;10380645;28;20476;-73
2022/04/18 13:55:47;;;;;;;2.70;1.10;;;18.20;18.00;;;;;;10369635;28;20237;-73
2022/04/18 14:00:52;;;;;;;1.67;1.30;;;18.30;17.90;;;;;;10377376;28;20227;-73
2022/04/18 14:05:56;;;;;;;2.57;1.33;;;18.30;17.70;;;;;;10379758;28;20236;-73
2022/04/18 14:10:59;;;;;;;1.30;1.30;;;18.40;17.70;;;;;;10381597;28;20601;-73
2022/04/18 14:21:26;;;;;;;1.43;1.33;;;18.50;17.60;;;;;;10381146;28;20226;-73
2022/04/18 14:26:30;;;;;;;1.60;1.50;;;18.50;17.60;;;;;;10381830;28;20242;-73
2022/04/18 14:31:34;;;;;;;1.40;1.30;;;18.50;17.50;;;;;;10381630;28;20236;-73
2022/04/18 14:36:37;;;;;;;1.47;1.30;;;18.50;17.30;;;;;;10376653;28;20288;-73
2022/04/18 14:41:41;;;;;;;1.40;1.30;;;18.50;17.60;;;;;;10382640;28;20226;-73
2022/04/18 14:46:45;;;;;;;1.77;1.30;;;18.50;17.30;;;;;;10383901;28;20340;-73
2022/04/18 14:51:48;;;;;;;1.40;1.30;;;18.50;16.90;;;;;;10384582;28;20279;-73
2022/04/18 14:56:51;;;;;;;1.20;1.20;;;18.40;17.30;;;;;;10378831;28;20601;-73
2022/04/18 15:01:57;;;;;;;1.83;1.30;;;18.40;17.20;;;;;;10381204;28;20638;-73
2022/04/18 15:07:00;;;;;;;1.40;1.30;;;18.40;17.00;;;;;;10379720;28;20329;-73
2022/04/18 15:12:07;;;;;;;1.43;1.33;;;18.50;17.40;;;;;;10382009;28;20230;-73
2022/04/18 15:17:12;;;;;;;1.40;1.30;;;18.50;17.20;;;;;;10376783;28;20230;-73
2022/04/18 15:22:15;;;;;;;1.60;1.50;;;18.50;17.10;;;;;;10379732;28;20305;-73
2022/04/18 15:27:18;;;;;;;1.33;1.30;;;18.50;17.20;;;;;;10382841;28;20233;-73
2022/04/18 15:32:22;;;;;;;1.27;1.17;;;18.50;17.20;;;;;;10379594;28;20232;-73
2022/04/18 15:37:26;;;;;;;1.33;1.23;;;18.50;17.00;;;;;;10381367;28;20244;-73
2022/04/18 15:42:29;;;;;;;1.40;1.30;;;18.40;17.10;;;;;;10379097;28;20218;-73
2022/04/18 15:47:33;;;;;;;1.40;1.30;;;18.40;17.30;;;;;;10378243;28;20723;-73
2022/04/18 15:52:37;;;;;;;1.30;1.20;;;18.40;17.00;;;;;;10374079;28;20226;-73
2022/04/18 15:57:40;;;;;;;1.40;1.27;;;18.40;17.10;;;;;;10377813;28;20800;-73
2022/04/18 16:02:45;;;;;;;1.30;1.20;;;18.40;17.00;;;;;;10376735;28;20886;-73
2022/04/18 16:07:48;;;;;;;1.50;1.40;;;18.50;17.10;;;;;;10378939;28;20316;-73
2022/04/18 16:12:51;;;;;;;4.97;4.47;;;18.50;17.10;;;;;;10374720;28;20222;-73
2022/04/18 16:17:56;;;;;;;1.90;1.80;;;18.50;16.90;;;;;;10379804;28;20230;-73
2022/04/18 16:23:00;;;;;;;1.50;1.40;;;18.50;16.80;;;;;;10378715;28;20226;-73
2022/04/18 16:28:03;;;;;;;1.50;1.40;;;18.50;17.00;;;;;;10376179;28;20249;-74
2022/04/18 16:33:26;;;;;;;1.17;1.17;;;18.60;17.10;;;;;;10376667;28;20230;-73
2022/04/18 16:38:29;;;;;;;1.30;1.20;;;18.60;17.00;;;;;;10380459;28;20229;-73
2022/04/18 16:48:54;;;;;;;1.87;1.23;;;18.70;17.00;;;;;;10374704;28;20237;-73
2022/04/18 16:53:57;;;;;;;1.43;1.33;;;18.70;16.80;;;;;;10380810;28;20222;-73
2022/04/18 16:59:00;;;;;;;1.30;1.20;;;18.70;16.90;;;;;;10377002;28;20874;-73
2022/04/18 17:04:05;;;;;;;1.20;1.10;;;18.60;16.80;;;;;;10377987;28;20241;-73
2022/04/18 17:09:08;;;;;;;1.40;1.30;;;18.60;16.60;;;;;;10378843;28;20232;-73
2022/04/18 17:14:11;;;;;;;1.20;1.10;;;18.50;16.70;;;;;;10373526;28;20324;-74
2022/04/18 17:19:15;;;;;;;1.40;1.30;;;18.40;16.70;;;;;;10378738;28;20722;-73
2022/04/18 17:24:19;;;;;;;1.40;1.30;;;18.30;16.70;;;;;;10379665;28;20226;-73
2022/04/18 17:29:23;;;;;;;2.13;1.93;;;18.30;17.00;;;;;;10374886;28;20232;-75
2022/04/18 17:34:27;;;;;;;1.30;1.30;;;18.30;16.90;;;;;;10373135;28;20233;-73
2022/04/18 17:39:30;;;;;;;1.23;1.10;;;18.20;16.60;;;;;;10377980;28;20229;-73
2022/04/18 17:44:33;;;;;;;1.37;1.27;;;18.10;16.80;;;;;;10383933;28;20236;-73
2022/04/18 17:49:44;;;;;;;1.30;1.20;;;18.10;16.90;;;;;;10380288;28;20837;-73
2022/04/18 18:00:10;;;;;;;1.30;1.20;;;17.80;16.90;;;;;;10382502;28;20240;-74
2022/04/18 18:05:14;;;;;;;1.40;1.30;;;17.70;17.10;;;;;;10388291;28;20225;-73
2022/04/18 18:10:18;;;;;;;1.40;1.30;;;17.60;17.10;;;;;;10384822;28;20241;-73
2022/04/18 18:15:21;;;;;;;1.57;1.47;;;17.60;17.30;;;;;;10382463;28;20329;-74
2022/04/18 18:20:25;;;;;;;2.23;1.50;;;17.50;17.40;;;;;;10386464;28;20240;-73
2022/04/18 18:25:29;;;;;;;2.23;2.13;;;17.50;17.70;;;;;;10380700;28;20252;-73
2022/04/18 18:30:32;;;;;;;2.53;2.30;;;17.50;17.70;;;;;;10386040;28;20228;-73
2022/04/18 18:35:39;;;;;;;2.30;2.20;;;17.50;18.30;;;;;;10380486;28;20637;-74
2022/04/18 18:40:45;;;;;;;2.13;1.93;;;17.30;17.80;;;;;;10381516;28;20232;-73
2022/04/18 18:45:48;;;;;;;2.40;2.20;;;17.20;17.80;;;;;;10381373;28;20237;-73
2022/04/18 18:56:13;;;;;;;1.90;1.80;;;16.80;17.90;;;;;;10379448;28;20230;-73
2022/04/18 19:01:19;;;;;;;2.20;2.00;;;16.60;17.90;;;;;;10378782;28;20236;-73
2022/04/18 19:06:24;;;;;;;1.93;1.80;;;16.50;18.10;;;;;;10378221;28;20257;-73
2022/04/18 19:11:28;;;;;;;3.93;2.90;;;16.40;18.30;;;;;;10378265;28;20222;-73
2022/04/18 19:26:20;;;;;;;4.60;4.20;;;16.30;18.30;;;;;;10377140;28;20238;-73
2022/04/18 19:27:16;;;;;;;3.50;3.20;;;15.90;18.60;;;;;;10383353;28;20222;-74
2022/04/18 19:32:19;;;;;;;4.93;4.43;;;15.70;18.60;;;;;;10380544;28;20222;-73
2022/04/18 19:37:25;;;;;;;4.40;3.80;;;15.50;18.70;;;;;;10379366;28;20234;-73
2022/04/18 19:42:28;;;;;;;3.30;3.00;;;15.40;19.10;;;;;;10377589;28;20225;-74
2022/04/18 19:47:31;;;;;;;2.67;2.47;;;15.30;19.10;;;;;;10377026;28;20282;-73
2022/04/18 19:52:35;;;;;;;2.60;2.40;;;15.20;19.20;;;;;;10382790;28;20552;-74
2022/04/18 19:57:39;;;;;;;3.20;3.00;;;15.10;19.50;;;;;;10378867;28;20230;-73
2022/04/18 20:02:42;;;;;;;5.37;4.90;;;15.10;19.50;;;;;;10379410;28;20755;-74
2022/04/18 20:07:46;;;;;;;5.60;4.03;;;15.00;19.60;;;;;;10379478;28;20226;-73
2022/04/18 20:12:51;;;;;;;4.90;4.50;;;15.00;19.80;;;;;;10378924;28;20229;-73
2022/04/18 20:17:54;;;;;;;4.97;4.57;;;14.90;19.80;;;;;;10384938;28;21169;-73
2022/04/18 20:22:58;;;;;;;3.57;3.27;;;14.80;19.90;;;;;;10375910;28;20236;-74
2022/04/18 20:28:02;;;;;;;3.83;3.00;;;14.60;20.10;;;;;;10381681;28;20226;-74
2022/04/18 20:33:06;;;;;;;4.20;2.50;;;14.40;20.00;;;;;;10378578;28;20230;-74
2022/04/18 20:38:11;;;;;;;4.63;2.57;;;14.30;20.00;;;;;;10376991;28;20234;-74
2022/04/18 20:43:15;;;;;;;3.70;2.93;;;14.10;20.40;;;;;;10377461;28;20339;-74
2022/04/18 20:48:31;;;;;;;3.00;2.70;;;14.00;20.30;;;;;;10374294;28;20225;-74
2022/04/18 20:58:59;;;;;;;3.57;2.60;;;13.60;21.00;;;;;;10375599;28;20883;-73
2022/04/18 21:04:02;;;;;;;3.00;2.80;;;13.60;21.00;;;;;;10376808;28;20236;-74
2022/04/18 21:09:07;;;;;;;5.77;2.93;;;13.50;20.90;;;;;;10375124;28;20222;-74
2022/04/18 21:14:10;;;;;;;2.80;2.53;;;13.50;20.90;;;;;;10377905;28;20240;-74
2022/04/18 21:19:14;;;;;;;2.57;2.37;;;13.50;20.90;;;;;;10377158;28;20694;-74
2022/04/18 21:24:18;;;;;;;3.40;2.93;;;13.40;20.90;;;;;;10381355;28;20232;-74
2022/04/18 21:29:21;;;;;;;3.03;2.70;;;13.30;20.90;;;;;;10376400;28;20238;-74
2022/04/18 21:34:25;;;;;;;3.73;2.30;;;13.20;20.70;;;;;;10372865;28;20229;-74
2022/04/18 21:39:29;;;;;;;2.87;2.50;;;13.10;20.90;;;;;;10380192;28;20233;-73
2022/04/18 21:44:32;;;;;;;3.20;2.90;;;13.00;21.50;;;;;;10379116;28;20873;-74
2022/04/18 21:49:35;;;;;;;3.10;2.90;;;12.90;21.30;;;;;;10378726;28;20236;-73
2022/04/18 21:54:42;;;;;;;3.10;2.80;;;12.80;21.50;;;;;;10378590;28;20234;-73
2022/04/18 21:59:45;;;;;;;3.23;2.93;;;12.70;21.90;;;;;;10376859;28;20248;-74
2022/04/18 22:04:52;;;;;;;4.30;3.07;;;12.60;21.60;;;;;;10376329;28;20600;-74
2022/04/18 22:09:56;;;;;;;4.00;2.90;;;12.50;21.80;;;;;;10375828;28;20607;-73
2022/04/18 22:15:00;;;;;;;4.03;3.57;;;12.60;22.10;;;;;;10372825;28;20237;-74
2022/04/18 22:25:26;;;;;;;4.03;3.70;;;12.60;22.00;;;;;;10380578;28;20230;-74
2022/04/18 22:30:30;;;;;;;5.57;4.13;;;12.50;22.30;;;;;;10384492;28;20226;-74
2022/04/18 22:35:33;;;;;;;4.90;3.67;;;12.50;22.10;;;;;;10382746;28;20230;-74
2022/04/18 22:40:37;;;;;;;4.10;3.23;;;12.30;22.10;;;;;;10378910;28;20237;-73
2022/04/18 22:45:42;;;;;;;4.97;3.70;;;12.30;22.60;;;;;;10379118;28;20230;-74
2022/04/18 22:50:46;;;;;;;4.00;3.60;;;12.20;22.40;;;;;;10383278;28;20222;-73
2022/04/18 22:55:50;;;;;;;3.93;3.53;;;12.20;22.40;;;;;;10376569;28;20237;-74
2022/04/18 23:00:54;;;;;;;4.30;3.90;;;12.20;22.70;;;;;;10380038;28;20229;-74
2022/04/18 23:05:58;;;;;;;4.10;3.70;;;12.20;22.70;;;;;;10385582;28;20227;-74
2022/04/18 23:11:02;;;;;;;3.77;3.47;;;12.20;22.60;;;;;;10384979;28;20221;-74
2022/04/18 23:16:07;;;;;;;4.23;3.83;;;12.10;22.70;;;;;;10379111;28;20229;-74
2022/04/18 23:21:11;;;;;;;4.37;3.83;;;12.10;22.70;;;;;;10375786;28;20238;-74
2022/04/18 23:26:15;;;;;;;4.07;3.30;;;12.00;22.70;;;;;;10386690;28;20718;-74
2022/04/18 23:31:18;;;;;;;3.70;3.27;;;11.90;22.90;;;;;;10381772;28;20241;-74
2022/04/18 23:36:22;;;;;;;4.13;2.93;;;11.90;22.80;;;;;;10376078;28;20733;-74
2022/04/18 23:46:47;;;;;;;3.67;3.37;;;11.90;23.20;;;;;;10375877;28;20230;-74
2022/04/18 23:51:51;;;;;;;3.67;2.87;;;11.90;22.90;;;;;;10381184;28;20257;-74
2022/04/18 23:56:55;;;;;;;3.67;3.10;;;11.80;22.80;;;;;;10372587;28;20230;-74
